createdAt,value
2023-05-23T00:01:55.384Z,13.90
2023-05-23T00:04:22.747Z,13.90
2023-05-23T00:06:50.857Z,13.90
2023-05-23T00:09:18.308Z,13.90
2023-05-23T00:11:45.879Z,13.80
2023-05-23T00:14:14.414Z,13.80
2023-05-23T00:16:46.772Z,13.80
2023-05-23T00:19:17.277Z,13.80
2023-05-23T00:21:51.319Z,13.70
2023-05-23T00:24:19.111Z,13.70
2023-05-23T00:26:47.190Z,13.70
2023-05-23T00:29:16.844Z,13.60
2023-05-23T00:31:48.008Z,13.60
2023-05-23T00:34:18.073Z,13.50
2023-05-23T00:36:48.198Z,13.50
2023-05-23T00:39:20.352Z,13.40
2023-05-23T00:41:52.306Z,13.40
2023-05-23T00:44:22.004Z,13.40
2023-05-23T00:46:53.982Z,13.30
2023-05-23T00:49:21.528Z,13.30
2023-05-23T00:51:51.934Z,13.30
2023-05-23T00:54:24.900Z,13.20
2023-05-23T00:56:52.122Z,13.20
2023-05-23T00:59:21.666Z,13.20
2023-05-23T01:01:54.902Z,13.20
2023-05-23T01:04:27.263Z,13.20
2023-05-23T01:06:58.018Z,13.20
2023-05-23T01:09:27.912Z,13.10
2023-05-23T01:12:17.282Z,13.10
2023-05-23T01:15:12.718Z,13.20
2023-05-23T01:17:53.113Z,13.20
2023-05-23T01:20:27.639Z,13.10
2023-05-23T01:23:19.315Z,13.10
2023-05-23T01:26:19.906Z,13.20
2023-05-23T01:28:51.502Z,13.10
2023-05-23T01:31:20.211Z,13.10
2023-05-23T01:33:50.410Z,13.10
2023-05-23T01:36:17.609Z,13.00
2023-05-23T01:38:44.873Z,12.90
2023-05-23T01:41:12.099Z,12.80
2023-05-23T01:43:39.787Z,12.80
2023-05-23T01:46:08.345Z,12.70
2023-05-23T01:48:36.832Z,12.80
2023-05-23T01:51:04.255Z,12.80
2023-05-23T01:53:32.578Z,12.80
2023-05-23T01:56:03.857Z,12.80
2023-05-23T01:58:31.354Z,12.70
2023-05-23T02:00:59.101Z,12.70
2023-05-23T02:03:26.901Z,12.60
2023-05-23T02:05:54.135Z,12.60
2023-05-23T02:08:21.762Z,12.60
2023-05-23T02:10:48.891Z,12.60
2023-05-23T02:13:16.059Z,12.60
2023-05-23T02:15:43.306Z,12.60
2023-05-23T02:18:10.595Z,12.50
2023-05-23T02:20:37.717Z,12.50
2023-05-23T02:23:05.037Z,12.50
2023-05-23T02:25:32.368Z,12.50
2023-05-23T02:27:59.596Z,12.50
2023-05-23T02:30:26.713Z,12.50
2023-05-23T02:32:54.055Z,12.50
2023-05-23T02:35:22.652Z,12.50
2023-05-23T02:37:49.901Z,12.50
2023-05-23T02:40:17.198Z,12.50
2023-05-23T02:42:44.357Z,12.50
2023-05-23T02:45:11.642Z,12.50
2023-05-23T02:47:38.823Z,12.40
2023-05-23T02:50:06.663Z,12.40
2023-05-23T02:52:33.892Z,12.40
2023-05-23T02:55:01.093Z,12.40
2023-05-23T02:57:28.326Z,12.40
2023-05-23T02:59:56.087Z,12.30
2023-05-23T03:02:23.378Z,12.30
2023-05-23T03:04:51.308Z,12.30
2023-05-23T03:07:27.499Z,12.20
2023-05-23T03:09:56.567Z,12.20
2023-05-23T03:12:23.821Z,12.20
2023-05-23T03:14:51.119Z,12.20
2023-05-23T03:17:18.320Z,12.10
2023-05-23T03:19:45.580Z,12.20
2023-05-23T03:22:12.826Z,12.10
2023-05-23T03:24:40.033Z,12.10
2023-05-23T03:27:07.406Z,12.20
2023-05-23T03:29:34.714Z,12.20
2023-05-23T03:32:01.990Z,12.30
2023-05-23T03:34:29.278Z,12.30
2023-05-23T03:36:56.590Z,12.40
2023-05-23T03:39:24.884Z,12.50
2023-05-23T03:41:52.201Z,12.60
2023-05-23T03:44:19.641Z,12.70
2023-05-23T03:46:46.897Z,12.90
2023-05-23T03:49:14.133Z,13.00
2023-05-23T03:51:41.535Z,13.10
2023-05-23T03:54:08.835Z,13.10
2023-05-23T03:56:36.066Z,13.30
2023-05-23T03:59:03.427Z,13.40
2023-05-23T04:01:30.652Z,13.50
2023-05-23T04:03:58.304Z,13.60
2023-05-23T04:06:25.705Z,13.70
2023-05-23T04:08:52.966Z,13.80
2023-05-23T04:11:20.199Z,13.90
2023-05-23T04:13:47.474Z,14.00
2023-05-23T04:16:14.738Z,14.20
2023-05-23T04:18:43.760Z,14.30
2023-05-23T04:21:10.976Z,14.50
2023-05-23T04:23:38.709Z,14.70
2023-05-23T04:26:06.053Z,16.00
2023-05-23T04:28:34.609Z,17.60
2023-05-23T04:31:03.487Z,18.80
2023-05-23T04:33:30.889Z,19.70
2023-05-23T04:35:58.032Z,20.40
2023-05-23T04:38:25.410Z,20.70
2023-05-23T04:40:53.085Z,20.00
2023-05-23T04:43:21.026Z,19.80
2023-05-23T04:45:51.257Z,20.80
2023-05-23T04:48:21.732Z,22.10
2023-05-23T04:50:51.062Z,23.40
2023-05-23T04:53:18.429Z,24.50
2023-05-23T04:55:46.036Z,25.10
2023-05-23T04:58:13.327Z,25.10
2023-05-23T05:00:40.983Z,25.40
2023-05-23T05:03:10.114Z,25.30
2023-05-23T05:05:37.578Z,25.40
2023-05-23T05:08:04.767Z,25.20
2023-05-23T05:10:32.055Z,24.10
2023-05-23T05:12:59.209Z,22.80
2023-05-23T05:15:26.285Z,21.90
2023-05-23T05:17:53.971Z,21.20
2023-05-23T05:20:22.027Z,20.80
2023-05-23T05:22:56.603Z,21.30
2023-05-23T05:25:24.188Z,22.00
2023-05-23T05:27:52.746Z,23.60
2023-05-23T05:30:20.314Z,25.20
2023-05-23T05:32:48.066Z,26.20
2023-05-23T05:35:15.340Z,27.20
2023-05-23T05:37:42.496Z,27.50
2023-05-23T05:40:10.182Z,27.50
2023-05-23T05:42:37.298Z,28.10
2023-05-23T05:45:04.960Z,28.50
2023-05-23T05:47:32.133Z,28.50
2023-05-23T05:49:59.309Z,28.70
2023-05-23T05:52:26.433Z,28.90
2023-05-23T05:54:53.592Z,29.30
2023-05-23T05:57:20.837Z,28.40
2023-05-23T05:59:47.970Z,28.60
2023-05-23T06:02:15.163Z,26.90
2023-05-23T06:04:42.311Z,25.50
2023-05-23T06:07:09.688Z,24.30
2023-05-23T06:09:36.872Z,23.60
2023-05-23T06:12:04.162Z,23.40
2023-05-23T06:14:31.245Z,23.30
2023-05-23T06:16:58.813Z,23.10
2023-05-23T06:19:26.037Z,23.00
2023-05-23T06:21:53.795Z,23.00
2023-05-23T06:24:21.047Z,22.80
2023-05-23T06:26:48.221Z,22.70
2023-05-23T06:29:15.366Z,22.70
2023-05-23T06:31:42.627Z,22.70
2023-05-23T06:34:09.936Z,22.70
2023-05-23T06:36:37.069Z,22.50
2023-05-23T06:39:04.310Z,22.40
2023-05-23T06:41:31.399Z,22.30
2023-05-23T06:43:58.593Z,22.00
2023-05-23T06:46:25.942Z,21.90
2023-05-23T06:49:02.735Z,21.80
2023-05-23T06:51:40.358Z,21.90
2023-05-23T06:54:07.526Z,22.00
2023-05-23T06:56:34.676Z,22.10
2023-05-23T06:59:01.831Z,22.40
2023-05-23T07:01:29.039Z,22.70
2023-05-23T07:03:56.288Z,23.20
2023-05-23T07:06:23.533Z,23.30
2023-05-23T07:08:50.716Z,23.60
2023-05-23T07:11:18.001Z,23.90
2023-05-23T07:13:45.117Z,24.00
2023-05-23T07:16:12.573Z,24.30
2023-05-23T07:18:39.848Z,24.60
2023-05-23T07:21:07.069Z,24.80
2023-05-23T07:23:34.733Z,25.20
2023-05-23T07:26:03.420Z,25.40
2023-05-23T07:28:31.052Z,25.40
2023-05-23T07:30:58.654Z,25.80
2023-05-23T07:33:26.216Z,25.70
2023-05-23T07:35:53.378Z,25.40
2023-05-23T07:38:21.287Z,24.90
2023-05-23T07:40:58.851Z,24.00
2023-05-23T07:43:30.142Z,23.20
2023-05-23T07:45:57.244Z,22.50
2023-05-23T07:48:24.654Z,21.90
2023-05-23T07:50:55.210Z,21.40
2023-05-23T07:53:22.848Z,20.80
2023-05-23T07:55:50.047Z,20.40
2023-05-23T07:58:17.609Z,20.00
2023-05-23T08:00:46.343Z,19.60
2023-05-23T08:03:13.652Z,19.20
2023-05-23T08:05:40.877Z,18.90
2023-05-23T08:08:08.042Z,18.60
2023-05-23T08:10:35.211Z,18.40
2023-05-23T08:13:06.957Z,18.30
2023-05-23T08:15:34.142Z,18.30
2023-05-23T08:18:01.513Z,18.30
2023-05-23T08:20:32.458Z,18.40
2023-05-23T08:23:03.417Z,18.50
2023-05-23T08:25:33.456Z,18.50
2023-05-23T08:28:01.652Z,18.70
2023-05-23T08:30:29.794Z,18.80
2023-05-23T08:32:58.195Z,18.90
2023-05-23T08:35:25.756Z,19.10
2023-05-23T08:37:52.974Z,19.30
2023-05-23T08:40:22.004Z,19.50
2023-05-23T08:42:50.586Z,19.60
2023-05-23T08:45:18.626Z,19.90
2023-05-23T08:47:47.487Z,20.10
2023-05-23T08:50:18.556Z,20.30
2023-05-23T08:52:58.929Z,20.60
2023-05-23T08:55:27.498Z,21.10
2023-05-23T08:58:01.094Z,21.70
2023-05-23T09:00:28.696Z,22.60
2023-05-23T09:02:57.454Z,23.00
2023-05-23T09:05:26.616Z,23.30
2023-05-23T09:07:54.033Z,23.60
2023-05-23T09:10:21.640Z,23.70
2023-05-23T09:12:49.363Z,23.50
2023-05-23T09:15:17.470Z,23.60
2023-05-23T09:17:45.705Z,23.80
2023-05-23T09:20:17.589Z,23.90
2023-05-23T09:22:48.906Z,24.10
2023-05-23T09:25:16.561Z,24.00
2023-05-23T09:27:46.884Z,23.70
2023-05-23T09:30:15.617Z,23.50
2023-05-23T09:32:42.928Z,23.30
2023-05-23T09:35:14.323Z,23.20
2023-05-23T09:37:49.193Z,23.10
2023-05-23T09:40:16.826Z,23.10
2023-05-23T09:42:45.969Z,23.20
2023-05-23T09:45:14.594Z,23.50
2023-05-23T09:47:52.293Z,23.80
2023-05-23T09:50:20.429Z,24.10
2023-05-23T09:52:48.333Z,24.40
2023-05-23T09:55:15.853Z,24.60
2023-05-23T09:57:44.413Z,24.50
2023-05-23T10:00:14.237Z,24.60
2023-05-23T10:02:56.150Z,24.90
2023-05-23T10:05:36.510Z,25.10
2023-05-23T10:08:13.715Z,25.30
2023-05-23T10:11:17.111Z,25.50
2023-05-23T10:13:45.990Z,26.00
2023-05-23T10:16:40.332Z,26.30
2023-05-23T10:19:20.012Z,26.70
2023-05-23T10:21:52.209Z,26.90
2023-05-23T10:24:20.000Z,26.60
2023-05-23T10:26:48.456Z,26.40
2023-05-23T10:29:15.601Z,26.70
2023-05-23T10:31:43.649Z,26.80
2023-05-23T10:34:24.694Z,26.60
2023-05-23T10:37:05.608Z,26.50
2023-05-23T10:40:16.141Z,26.10
2023-05-23T10:43:08.117Z,25.70
2023-05-23T10:45:45.706Z,25.60
2023-05-23T10:48:23.820Z,26.00
2023-05-23T10:51:08.125Z,26.40
2023-05-23T10:53:40.146Z,26.30
2023-05-23T10:56:09.059Z,26.70
2023-05-23T10:58:38.780Z,27.30
2023-05-23T11:01:20.175Z,27.60
2023-05-23T11:03:47.830Z,27.00
2023-05-23T11:06:43.365Z,26.80
2023-05-23T11:09:18.961Z,25.50
2023-05-23T11:11:54.557Z,24.60
2023-05-23T11:14:53.947Z,23.90
2023-05-23T11:17:35.315Z,23.40
2023-05-23T11:20:09.093Z,23.20
2023-05-23T11:22:36.940Z,23.60
2023-05-23T11:25:09.224Z,24.10
2023-05-23T11:27:38.617Z,24.50
2023-05-23T11:30:16.013Z,24.90
2023-05-23T11:32:51.298Z,25.40
2023-05-23T11:35:18.739Z,25.70
2023-05-23T11:37:46.020Z,25.90
2023-05-23T11:40:36.940Z,26.10
2023-05-23T11:43:07.565Z,26.20
2023-05-23T11:45:36.249Z,26.30
2023-05-23T11:48:13.938Z,26.20
2023-05-23T11:50:52.397Z,26.60
2023-05-23T11:53:22.013Z,26.50
2023-05-23T11:56:02.408Z,26.90
2023-05-23T11:58:33.445Z,27.10
2023-05-23T12:01:05.194Z,27.30
2023-05-23T12:03:33.232Z,27.50
2023-05-23T12:06:02.156Z,27.60
2023-05-23T12:08:29.411Z,27.10
2023-05-23T12:11:01.627Z,26.80
2023-05-23T12:13:30.337Z,26.20
2023-05-23T12:15:59.859Z,25.70
2023-05-23T12:18:32.348Z,25.20
2023-05-23T12:21:03.858Z,24.90
2023-05-23T12:23:33.888Z,24.40
2023-05-23T12:26:07.318Z,24.20
2023-05-23T12:28:39.479Z,24.40
2023-05-23T12:31:22.951Z,24.60
2023-05-23T12:33:53.572Z,23.70
2023-05-23T12:36:27.949Z,22.70
2023-05-23T12:39:03.574Z,21.80
2023-05-23T12:41:32.649Z,21.20
2023-05-23T12:44:00.663Z,20.60
2023-05-23T12:46:28.432Z,20.00
2023-05-23T12:48:55.993Z,19.50
2023-05-23T12:51:23.156Z,19.10
2023-05-23T12:53:50.920Z,18.90
2023-05-23T12:56:18.221Z,18.80
2023-05-23T12:58:45.372Z,18.70
2023-05-23T13:01:12.689Z,18.60
2023-05-23T13:03:39.933Z,18.60
2023-05-23T13:06:07.554Z,18.50
2023-05-23T13:08:34.781Z,18.50
2023-05-23T13:11:02.082Z,18.50
2023-05-23T13:13:30.039Z,18.60
2023-05-23T13:15:57.372Z,18.60
2023-05-23T13:18:24.966Z,18.70
2023-05-23T13:20:52.250Z,18.80
2023-05-23T13:23:19.388Z,18.90
2023-05-23T13:25:48.051Z,19.00
2023-05-23T13:28:15.239Z,19.20
2023-05-23T13:30:44.303Z,19.40
2023-05-23T13:33:13.943Z,19.70
2023-05-23T13:35:41.442Z,20.10
2023-05-23T13:38:08.959Z,20.40
2023-05-23T13:40:36.240Z,20.80
2023-05-23T13:43:03.486Z,21.00
2023-05-23T13:45:31.311Z,21.20
2023-05-23T13:47:58.424Z,21.40
2023-05-23T13:50:26.240Z,21.40
2023-05-23T13:52:53.356Z,21.30
2023-05-23T13:55:20.592Z,21.10
2023-05-23T13:57:48.024Z,20.80
2023-05-23T14:00:16.466Z,20.60
2023-05-23T14:02:44.020Z,20.50
2023-05-23T14:05:11.259Z,20.30
2023-05-23T14:07:38.836Z,20.20
2023-05-23T14:10:07.350Z,20.20
2023-05-23T14:12:34.586Z,20.10
2023-05-23T14:15:01.834Z,20.10
2023-05-23T14:17:29.113Z,20.10
2023-05-23T14:19:56.386Z,20.10
2023-05-23T14:22:23.514Z,20.10
2023-05-23T14:24:50.895Z,20.10
2023-05-23T14:27:19.171Z,20.10
2023-05-23T14:29:49.013Z,20.10
2023-05-23T14:32:16.276Z,20.30
2023-05-23T14:34:43.564Z,20.60
2023-05-23T14:37:10.802Z,20.70
2023-05-23T14:39:38.030Z,20.60
2023-05-23T14:42:05.574Z,20.40
2023-05-23T14:44:32.805Z,20.20
2023-05-23T14:46:59.996Z,20.10
2023-05-23T14:49:27.114Z,20.00
2023-05-23T14:51:54.214Z,19.90
2023-05-23T14:54:21.372Z,19.60
2023-05-23T14:56:50.435Z,19.50
2023-05-23T14:59:20.943Z,19.50
2023-05-23T15:01:49.942Z,19.60
2023-05-23T15:04:20.761Z,19.50
2023-05-23T15:06:49.860Z,19.50
2023-05-23T15:09:18.936Z,19.80
2023-05-23T15:11:47.272Z,19.90
2023-05-23T15:14:14.391Z,20.00
2023-05-23T15:16:44.605Z,20.00
2023-05-23T15:19:12.326Z,20.00
2023-05-23T15:21:40.679Z,20.00
2023-05-23T15:24:11.643Z,20.10
2023-05-23T15:26:38.769Z,20.20
2023-05-23T15:29:06.209Z,20.20
2023-05-23T15:31:33.380Z,20.40
2023-05-23T15:34:01.184Z,20.40
2023-05-23T15:36:32.139Z,20.30
2023-05-23T15:38:59.705Z,20.30
2023-05-23T15:41:26.860Z,20.30
2023-05-23T15:43:54.206Z,20.30
2023-05-23T15:46:21.542Z,20.60
2023-05-23T15:48:48.871Z,20.80
2023-05-23T15:51:16.746Z,21.00
2023-05-23T15:53:59.686Z,21.50
2023-05-23T15:56:27.924Z,21.90
2023-05-23T15:58:55.457Z,22.00
2023-05-23T16:01:22.878Z,22.20
2023-05-23T16:03:50.234Z,22.40
2023-05-23T16:06:17.434Z,22.40
2023-05-23T16:08:44.699Z,22.20
2023-05-23T16:11:11.836Z,22.10
2023-05-23T16:13:39.017Z,21.90
2023-05-23T16:16:06.588Z,21.80
2023-05-23T16:18:34.106Z,21.70
2023-05-23T16:21:01.695Z,21.40
2023-05-23T16:23:28.853Z,21.30
2023-05-23T16:25:56.018Z,21.20
2023-05-23T16:28:23.331Z,21.10
2023-05-23T16:30:51.028Z,20.90
2023-05-23T16:33:18.214Z,20.60
2023-05-23T16:35:45.337Z,20.30
2023-05-23T16:38:12.621Z,20.00
2023-05-23T16:40:40.004Z,19.80
2023-05-23T16:43:07.304Z,19.70
2023-05-23T16:45:34.534Z,19.80
2023-05-23T16:48:01.841Z,19.90
2023-05-23T16:50:29.078Z,19.90
2023-05-23T16:52:56.165Z,20.00
2023-05-23T16:55:23.539Z,20.00
2023-05-23T16:57:50.814Z,20.20
2023-05-23T17:00:18.757Z,20.30
2023-05-23T17:02:46.167Z,20.40
2023-05-23T17:05:13.480Z,20.30
2023-05-23T17:07:40.719Z,20.10
2023-05-23T17:10:08.786Z,20.00
2023-05-23T17:12:36.377Z,19.90
2023-05-23T17:15:04.220Z,20.20
2023-05-23T17:17:31.656Z,20.70
2023-05-23T17:19:58.803Z,21.10
2023-05-23T17:22:26.065Z,21.70
2023-05-23T17:24:53.239Z,22.10
2023-05-23T17:27:20.475Z,22.10
2023-05-23T17:29:47.661Z,22.00
2023-05-23T17:32:15.097Z,21.80
2023-05-23T17:34:42.474Z,21.50
2023-05-23T17:37:11.983Z,21.10
2023-05-23T17:39:39.154Z,20.90
2023-05-23T17:42:06.413Z,20.50
2023-05-23T17:44:33.674Z,20.20
2023-05-23T17:47:01.050Z,19.80
2023-05-23T17:49:28.289Z,19.60
2023-05-23T17:51:56.702Z,19.50
2023-05-23T17:54:23.955Z,19.40
2023-05-23T17:56:51.754Z,19.20
2023-05-23T17:59:18.979Z,19.10
2023-05-23T18:01:46.483Z,18.90
2023-05-23T18:04:13.801Z,18.80
2023-05-23T18:06:41.009Z,18.60
2023-05-23T18:09:09.895Z,18.50
2023-05-23T18:11:38.137Z,18.50
2023-05-23T18:14:05.653Z,18.30
2023-05-23T18:16:32.922Z,18.20
2023-05-23T18:19:00.241Z,18.20
2023-05-23T18:21:27.596Z,18.00
2023-05-23T18:23:54.736Z,17.90
2023-05-23T18:26:21.918Z,17.90
2023-05-23T18:28:49.146Z,17.70
2023-05-23T18:31:16.326Z,17.60
2023-05-23T18:33:43.549Z,17.50
2023-05-23T18:36:10.786Z,17.40
2023-05-23T18:38:38.101Z,17.30
2023-05-23T18:41:05.327Z,17.20
2023-05-23T18:43:32.514Z,17.10
2023-05-23T18:45:59.681Z,17.10
2023-05-23T18:48:27.485Z,17.00
2023-05-23T18:50:54.694Z,17.10
2023-05-23T18:53:21.821Z,17.10
2023-05-23T18:55:49.008Z,17.10
2023-05-23T18:58:16.199Z,17.10
2023-05-23T19:00:44.921Z,17.10
2023-05-23T19:03:12.230Z,17.20
2023-05-23T19:05:39.680Z,17.10
2023-05-23T19:08:06.837Z,17.10
2023-05-23T19:10:34.065Z,17.00
2023-05-23T19:13:02.267Z,16.90
2023-05-23T19:15:29.526Z,16.80
2023-05-23T19:17:56.998Z,16.80
2023-05-23T19:20:24.292Z,16.70
2023-05-23T19:22:52.346Z,16.70
2023-05-23T19:25:21.201Z,16.60
2023-05-23T19:27:48.518Z,16.50
2023-05-23T19:30:15.872Z,16.50
2023-05-23T19:32:45.226Z,16.50
2023-05-23T19:35:14.743Z,16.40
2023-05-23T19:37:44.141Z,16.40
2023-05-23T19:40:12.144Z,16.40
2023-05-23T19:42:39.341Z,16.40
2023-05-23T19:45:07.844Z,16.30
2023-05-23T19:47:35.111Z,16.30
2023-05-23T19:50:02.346Z,16.10
2023-05-23T19:52:29.513Z,16.10
2023-05-23T19:54:57.191Z,16.00
2023-05-23T19:57:26.420Z,15.90
2023-05-23T19:59:53.605Z,15.90
2023-05-23T20:02:21.073Z,15.90
2023-05-23T20:04:48.496Z,15.80
2023-05-23T20:07:15.660Z,15.80
2023-05-23T20:09:42.837Z,15.80
2023-05-23T20:12:10.110Z,16.00
2023-05-23T20:14:37.785Z,16.10
2023-05-23T20:17:05.064Z,16.20
2023-05-23T20:19:32.350Z,16.30
2023-05-23T20:21:59.814Z,16.40
2023-05-23T20:24:27.099Z,16.40
2023-05-23T20:26:54.385Z,16.50
2023-05-23T20:29:21.842Z,16.50
2023-05-23T20:31:49.129Z,16.50
2023-05-23T20:34:16.491Z,16.60
2023-05-23T20:36:43.736Z,16.60
2023-05-23T20:39:11.143Z,16.60
2023-05-23T20:41:41.739Z,16.60
2023-05-23T20:44:13.387Z,16.70
2023-05-23T20:46:40.792Z,16.80
2023-05-23T20:49:08.734Z,16.90
2023-05-23T20:51:38.892Z,17.00
2023-05-23T20:54:06.673Z,17.00
2023-05-23T20:56:34.027Z,17.00
2023-05-23T20:59:01.332Z,17.00
2023-05-23T21:01:29.016Z,16.90
2023-05-23T21:03:57.358Z,16.80
2023-05-23T21:06:24.612Z,16.80
2023-05-23T21:08:51.871Z,16.80
2023-05-23T21:11:19.133Z,16.70
2023-05-23T21:13:46.361Z,16.80
2023-05-23T21:16:14.906Z,16.80
2023-05-23T21:18:42.150Z,16.80
2023-05-23T21:21:09.314Z,16.90
2023-05-23T21:23:36.654Z,16.90
2023-05-23T21:26:03.809Z,16.90
2023-05-23T21:28:31.125Z,16.90
2023-05-23T21:30:59.027Z,16.90
2023-05-23T21:33:26.295Z,16.80
2023-05-23T21:35:53.429Z,16.80
2023-05-23T21:38:21.081Z,16.80
2023-05-23T21:40:48.228Z,16.80
2023-05-23T21:43:15.598Z,16.70
2023-05-23T21:45:42.718Z,16.80
2023-05-23T21:48:10.023Z,16.80
2023-05-23T21:50:37.214Z,16.80
2023-05-23T21:53:04.444Z,16.80
2023-05-23T21:55:31.620Z,16.80
2023-05-23T21:57:58.825Z,16.80
2023-05-23T22:00:27.392Z,16.80
2023-05-23T22:02:54.660Z,16.80
2023-05-23T22:05:22.060Z,16.80
2023-05-23T22:07:49.156Z,16.80
2023-05-23T22:10:16.479Z,16.80
2023-05-23T22:12:43.721Z,16.80
2023-05-23T22:15:11.372Z,16.80
2023-05-23T22:17:43.465Z,16.80
2023-05-23T22:20:15.032Z,16.80
2023-05-23T22:22:42.453Z,16.80
2023-05-23T22:25:09.742Z,16.80
2023-05-23T22:27:36.921Z,16.80
2023-05-23T22:30:04.332Z,16.70
2023-05-23T22:32:31.643Z,16.80
2023-05-23T22:34:58.789Z,16.70
2023-05-23T22:37:26.012Z,16.70
2023-05-23T22:39:53.269Z,16.70
2023-05-23T22:42:20.617Z,16.70
2023-05-23T22:44:48.574Z,16.70
2023-05-23T22:47:15.810Z,16.70
2023-05-23T22:49:43.979Z,16.60
2023-05-23T22:52:13.049Z,16.60
2023-05-23T22:54:40.172Z,16.60
2023-05-23T22:57:07.324Z,16.60
2023-05-23T22:59:34.501Z,16.60
2023-05-23T23:02:01.716Z,16.60
2023-05-23T23:04:31.236Z,16.60
2023-05-23T23:06:59.548Z,16.60
2023-05-23T23:09:27.163Z,16.60
2023-05-23T23:11:54.909Z,16.50
2023-05-23T23:14:22.471Z,16.50
2023-05-23T23:16:54.709Z,16.40
2023-05-23T23:19:22.140Z,16.40
2023-05-23T23:21:49.319Z,16.40
2023-05-23T23:24:16.448Z,16.30
2023-05-23T23:26:43.701Z,16.30
2023-05-23T23:29:11.349Z,16.30
2023-05-23T23:31:38.568Z,16.20
2023-05-23T23:34:05.798Z,16.20
2023-05-23T23:36:32.970Z,16.00
2023-05-23T23:39:00.269Z,16.00
2023-05-23T23:41:27.554Z,15.80
2023-05-23T23:43:54.723Z,15.70
2023-05-23T23:46:21.896Z,15.70
2023-05-23T23:48:49.089Z,15.60
2023-05-23T23:51:16.447Z,15.40
2023-05-23T23:53:44.572Z,15.30
2023-05-23T23:56:13.460Z,15.30
2023-05-23T23:58:40.641Z,15.30
